Hauptseite
METAR-TAF:

METAR-TAF

Flughäfen :

Gloucester, England

Breite: 51-54N, Länge: 002-10W, Höhe: 29 m

Beobachtung

Neuester Wetterbericht von vor 1 Stunde und 49 Minuten, um 19:20 UTC
Wind 5 kt aus Süd/Südwest
Temperatur 5°C
Luftfeuchtigkeit 87%
Luftdruck 1002 hPa
Sichtweite 10 km oder mehr
Leicht bewölkt in der Höhe von 2500 ft

METAR: EGBJ 161920Z 21005KT 9999 FEW025 05/03 Q1002

Zeit: 21:09 (21:09 UTC)

Prognose

Neuester Wetterbericht von vor 4 Stunden und 6 Minuten, um 17:03 UTC
Gültige Prognose vom 16 um 18 UTC bis 16 um 20 UTC
Wind 6 kt aus Südwest
Sichtweite 10 km oder mehr
Aufgelockert bewölkt in der Höhe von 2000 ft

TAF: EGBJ 161703Z 1618/1620 22006KT 9999 SCT020

Wetterbeobachtungen und Prognosen von mehr als 4000 Flughäfen (METAR und TAF Bericht).

Die verfügbaren Stationen werden durch gelbe und rote Markierungen auf der Karte dargestellt.

Führen Sie die Maus auf sie, um den Namen der Station zu sehen.

Darauf klicken, um die Beobachtung von Wetterbeobachtungen und Prognosen zu sehen.

Um die Karte zu ändern : klicken Sie auf den grünen Tasten mit einem schwarzen Kreuz Zum Vergrößern, auf den grünen Button mit einem Gedankenstrich zu verkleinern, oder auf die grünen Pfeile für benachbarte Karten.


METAR-TAF: